sensor_id;sensor_type;location;lat;lon;timestamp;P1;durP1;ratioP1;P2;durP2;ratioP2
67065;SDS011;53978;43.846;25.952;2023-08-12T00:00:09;2.50;;;2.13;;
67065;SDS011;53978;43.846;25.952;2023-08-12T00:02:39;3.55;;;2.45;;
67065;SDS011;53978;43.846;25.952;2023-08-12T00:05:06;4.30;;;2.15;;
67065;SDS011;53978;43.846;25.952;2023-08-12T00:07:32;8.60;;;3.90;;
67065;SDS011;53978;43.846;25.952;2023-08-12T00:09:58;4.70;;;2.95;;
67065;SDS011;53978;43.846;25.952;2023-08-12T00:12:24;4.47;;;2.92;;
67065;SDS011;53978;43.846;25.952;2023-08-12T00:14:49;8.68;;;3.17;;
67065;SDS011;53978;43.846;25.952;2023-08-12T00:17:15;3.17;;;2.65;;
67065;SDS011;53978;43.846;25.952;2023-08-12T00:19:40;3.08;;;2.50;;
67065;SDS011;53978;43.846;25.952;2023-08-12T00:22:06;3.22;;;2.45;;
67065;SDS011;53978;43.846;25.952;2023-08-12T00:24:31;5.93;;;2.30;;
67065;SDS011;53978;43.846;25.952;2023-08-12T00:26:56;5.15;;;2.42;;
67065;SDS011;53978;43.846;25.952;2023-08-12T00:29:22;4.05;;;2.55;;
67065;SDS011;53978;43.846;25.952;2023-08-12T00:31:47;3.55;;;2.30;;
67065;SDS011;53978;43.846;25.952;2023-08-12T00:34:12;4.07;;;2.45;;
67065;SDS011;53978;43.846;25.952;2023-08-12T00:36:38;2.63;;;2.28;;
67065;SDS011;53978;43.846;25.952;2023-08-12T00:39:03;5.78;;;2.38;;
67065;SDS011;53978;43.846;25.952;2023-08-12T00:41:29;12.48;;;2.60;;
67065;SDS011;53978;43.846;25.952;2023-08-12T00:43:54;3.22;;;2.35;;
67065;SDS011;53978;43.846;25.952;2023-08-12T00:46:20;4.95;;;2.42;;
67065;SDS011;53978;43.846;25.952;2023-08-12T00:48:46;3.10;;;2.30;;
67065;SDS011;53978;43.846;25.952;2023-08-12T00:51:12;2.50;;;2.28;;
67065;SDS011;53978;43.846;25.952;2023-08-12T00:53:37;6.75;;;2.65;;
67065;SDS011;53978;43.846;25.952;2023-08-12T00:56:03;4.28;;;2.38;;
67065;SDS011;53978;43.846;25.952;2023-08-12T00:58:28;5.07;;;2.50;;
67065;SDS011;53978;43.846;25.952;2023-08-12T01:00:54;4.80;;;2.20;;
67065;SDS011;53978;43.846;25.952;2023-08-12T01:03:20;3.35;;;2.30;;
67065;SDS011;53978;43.846;25.952;2023-08-12T01:05:46;2.72;;;2.15;;
67065;SDS011;53978;43.846;25.952;2023-08-12T01:08:11;4.53;;;2.25;;
67065;SDS011;53978;43.846;25.952;2023-08-12T01:10:37;8.77;;;2.50;;
67065;SDS011;53978;43.846;25.952;2023-08-12T01:13:07;3.78;;;2.13;;
67065;SDS011;53978;43.846;25.952;2023-08-12T01:15:49;3.42;;;2.30;;
67065;SDS011;53978;43.846;25.952;2023-08-12T01:18:17;2.58;;;2.38;;
67065;SDS011;53978;43.846;25.952;2023-08-12T01:20:43;3.75;;;2.50;;
67065;SDS011;53978;43.846;25.952;2023-08-12T01:25:36;5.50;;;2.50;;
67065;SDS011;53978;43.846;25.952;2023-08-12T01:28:01;4.25;;;2.22;;
67065;SDS011;53978;43.846;25.952;2023-08-12T01:30:27;2.90;;;2.40;;
67065;SDS011;53978;43.846;25.952;2023-08-12T01:33:03;2.50;;;2.30;;
67065;SDS011;53978;43.846;25.952;2023-08-12T01:36:06;3.10;;;2.45;;
67065;SDS011;53978;43.846;25.952;2023-08-12T01:38:33;4.32;;;2.47;;
67065;SDS011;53978;43.846;25.952;2023-08-12T01:40:59;2.53;;;2.28;;
67065;SDS011;53978;43.846;25.952;2023-08-12T01:43:25;3.28;;;2.22;;
67065;SDS011;53978;43.846;25.952;2023-08-12T01:45:50;2.45;;;2.15;;
67065;SDS011;53978;43.846;25.952;2023-08-12T01:48:16;2.97;;;2.10;;
67065;SDS011;53978;43.846;25.952;2023-08-12T01:50:41;4.43;;;2.47;;
67065;SDS011;53978;43.846;25.952;2023-08-12T01:53:12;2.78;;;2.50;;
67065;SDS011;53978;43.846;25.952;2023-08-12T01:55:37;2.50;;;2.30;;
67065;SDS011;53978;43.846;25.952;2023-08-12T01:58:03;3.42;;;2.53;;
67065;SDS011;53978;43.846;25.952;2023-08-12T02:00:28;5.28;;;2.40;;
67065;SDS011;53978;43.846;25.952;2023-08-12T02:02:53;3.42;;;2.38;;
67065;SDS011;53978;43.846;25.952;2023-08-12T02:05:19;5.78;;;2.40;;
67065;SDS011;53978;43.846;25.952;2023-08-12T02:07:44;4.05;;;2.85;;
67065;SDS011;53978;43.846;25.952;2023-08-12T02:10:10;3.13;;;2.53;;
67065;SDS011;53978;43.846;25.952;2023-08-12T02:12:35;3.10;;;2.30;;
67065;SDS011;53978;43.846;25.952;2023-08-12T02:15:01;2.88;;;2.50;;
67065;SDS011;53978;43.846;25.952;2023-08-12T02:17:26;3.10;;;2.65;;
67065;SDS011;53978;43.846;25.952;2023-08-12T02:19:51;4.03;;;2.47;;
67065;SDS011;53978;43.846;25.952;2023-08-12T02:22:17;3.75;;;2.60;;
67065;SDS011;53978;43.846;25.952;2023-08-12T02:24:42;4.43;;;2.45;;
67065;SDS011;53978;43.846;25.952;2023-08-12T02:27:08;2.45;;;2.25;;
67065;SDS011;53978;43.846;25.952;2023-08-12T02:29:33;4.72;;;2.55;;
67065;SDS011;53978;43.846;25.952;2023-08-12T02:31:58;5.38;;;2.40;;
67065;SDS011;53978;43.846;25.952;2023-08-12T02:34:24;4.10;;;2.80;;
67065;SDS011;53978;43.846;25.952;2023-08-12T02:36:49;3.53;;;2.75;;
67065;SDS011;53978;43.846;25.952;2023-08-12T02:39:15;6.10;;;2.70;;
67065;SDS011;53978;43.846;25.952;2023-08-12T02:41:40;9.98;;;2.65;;
67065;SDS011;53978;43.846;25.952;2023-08-12T02:44:05;4.63;;;2.58;;
67065;SDS011;53978;43.846;25.952;2023-08-12T02:46:31;3.95;;;2.45;;
67065;SDS011;53978;43.846;25.952;2023-08-12T02:48:56;4.93;;;2.72;;
67065;SDS011;53978;43.846;25.952;2023-08-12T02:51:22;2.80;;;2.60;;
67065;SDS011;53978;43.846;25.952;2023-08-12T02:53:47;6.95;;;2.72;;
67065;SDS011;53978;43.846;25.952;2023-08-12T02:56:12;5.35;;;2.90;;
67065;SDS011;53978;43.846;25.952;2023-08-12T02:58:38;4.07;;;2.67;;
67065;SDS011;53978;43.846;25.952;2023-08-12T03:01:03;3.55;;;2.40;;
67065;SDS011;53978;43.846;25.952;2023-08-12T03:03:29;4.20;;;2.60;;
67065;SDS011;53978;43.846;25.952;2023-08-12T03:05:54;4.00;;;2.92;;
67065;SDS011;53978;43.846;25.952;2023-08-12T03:08:20;3.40;;;3.00;;
67065;SDS011;53978;43.846;25.952;2023-08-12T03:10:45;4.65;;;3.72;;
67065;SDS011;53978;43.846;25.952;2023-08-12T03:13:11;7.30;;;3.40;;
67065;SDS011;53978;43.846;25.952;2023-08-12T03:15:39;4.25;;;3.15;;
67065;SDS011;53978;43.846;25.952;2023-08-12T03:18:05;4.00;;;3.03;;
67065;SDS011;53978;43.846;25.952;2023-08-12T03:20:30;3.90;;;2.65;;
67065;SDS011;53978;43.846;25.952;2023-08-12T03:22:56;3.30;;;2.90;;
67065;SDS011;53978;43.846;25.952;2023-08-12T03:25:21;3.88;;;2.58;;
67065;SDS011;53978;43.846;25.952;2023-08-12T03:27:47;8.68;;;3.22;;
67065;SDS011;53978;43.846;25.952;2023-08-12T03:30:13;4.22;;;2.85;;
67065;SDS011;53978;43.846;25.952;2023-08-12T03:32:38;3.78;;;3.20;;
67065;SDS011;53978;43.846;25.952;2023-08-12T03:35:04;9.32;;;2.97;;
67065;SDS011;53978;43.846;25.952;2023-08-12T03:37:29;3.08;;;2.50;;
67065;SDS011;53978;43.846;25.952;2023-08-12T03:39:55;4.63;;;2.95;;
67065;SDS011;53978;43.846;25.952;2023-08-12T03:42:20;5.68;;;2.95;;
67065;SDS011;53978;43.846;25.952;2023-08-12T03:44:46;4.05;;;3.20;;
67065;SDS011;53978;43.846;25.952;2023-08-12T03:47:11;3.50;;;2.83;;
67065;SDS011;53978;43.846;25.952;2023-08-12T03:52:04;2.92;;;2.63;;
67065;SDS011;53978;43.846;25.952;2023-08-12T03:54:32;5.13;;;2.92;;
67065;SDS011;53978;43.846;25.952;2023-08-12T03:56:57;4.50;;;2.78;;
67065;SDS011;53978;43.846;25.952;2023-08-12T03:59:23;3.30;;;2.83;;
67065;SDS011;53978;43.846;25.952;2023-08-12T04:01:48;4.85;;;2.83;;
67065;SDS011;53978;43.846;25.952;2023-08-12T04:04:13;2.92;;;2.55;;
67065;SDS011;53978;43.846;25.952;2023-08-12T04:06:39;10.50;;;2.75;;
67065;SDS011;53978;43.846;25.952;2023-08-12T04:09:06;6.82;;;2.83;;
67065;SDS011;53978;43.846;25.952;2023-08-12T04:11:32;8.32;;;2.90;;
67065;SDS011;53978;43.846;25.952;2023-08-12T04:13:57;4.22;;;2.90;;
67065;SDS011;53978;43.846;25.952;2023-08-12T04:16:23;3.08;;;2.75;;
67065;SDS011;53978;43.846;25.952;2023-08-12T04:18:48;3.55;;;2.60;;
67065;SDS011;53978;43.846;25.952;2023-08-12T04:21:14;3.10;;;2.60;;
67065;SDS011;53978;43.846;25.952;2023-08-12T04:23:39;6.85;;;2.75;;
67065;SDS011;53978;43.846;25.952;2023-08-12T04:26:05;3.22;;;2.42;;
67065;SDS011;53978;43.846;25.952;2023-08-12T04:28:30;2.88;;;2.58;;
67065;SDS011;53978;43.846;25.952;2023-08-12T04:30:56;5.55;;;2.72;;
67065;SDS011;53978;43.846;25.952;2023-08-12T04:33:22;7.20;;;3.38;;
67065;SDS011;53978;43.846;25.952;2023-08-12T04:35:47;5.20;;;2.67;;
67065;SDS011;53978;43.846;25.952;2023-08-12T04:38:13;6.22;;;2.60;;
67065;SDS011;53978;43.846;25.952;2023-08-12T04:40:39;11.27;;;3.05;;
67065;SDS011;53978;43.846;25.952;2023-08-12T04:43:05;7.93;;;2.88;;
67065;SDS011;53978;43.846;25.952;2023-08-12T04:45:30;3.13;;;2.50;;
67065;SDS011;53978;43.846;25.952;2023-08-12T04:47:56;5.13;;;2.60;;
67065;SDS011;53978;43.846;25.952;2023-08-12T04:50:22;7.97;;;2.80;;
67065;SDS011;53978;43.846;25.952;2023-08-12T04:52:47;3.72;;;2.45;;
67065;SDS011;53978;43.846;25.952;2023-08-12T04:55:13;5.38;;;2.70;;
67065;SDS011;53978;43.846;25.952;2023-08-12T04:57:38;3.40;;;2.60;;
67065;SDS011;53978;43.846;25.952;2023-08-12T05:00:04;6.20;;;2.60;;
67065;SDS011;53978;43.846;25.952;2023-08-12T05:02:33;4.57;;;2.67;;
67065;SDS011;53978;43.846;25.952;2023-08-12T05:04:59;5.35;;;2.53;;
67065;SDS011;53978;43.846;25.952;2023-08-12T05:07:24;17.40;;;3.40;;
67065;SDS011;53978;43.846;25.952;2023-08-12T05:09:49;7.97;;;2.85;;
67065;SDS011;53978;43.846;25.952;2023-08-12T05:12:15;5.80;;;2.42;;
67065;SDS011;53978;43.846;25.952;2023-08-12T05:14:40;2.97;;;2.70;;
67065;SDS011;53978;43.846;25.952;2023-08-12T05:17:06;5.97;;;3.03;;
67065;SDS011;53978;43.846;25.952;2023-08-12T05:19:31;4.43;;;3.28;;
67065;SDS011;53978;43.846;25.952;2023-08-12T05:21:57;7.82;;;3.58;;
67065;SDS011;53978;43.846;25.952;2023-08-12T05:24:23;8.15;;;3.25;;
67065;SDS011;53978;43.846;25.952;2023-08-12T05:26:48;4.55;;;3.22;;
67065;SDS011;53978;43.846;25.952;2023-08-12T05:29:13;4.50;;;3.53;;
67065;SDS011;53978;43.846;25.952;2023-08-12T05:31:39;8.02;;;3.78;;
67065;SDS011;53978;43.846;25.952;2023-08-12T05:34:04;8.60;;;3.88;;
67065;SDS011;53978;43.846;25.952;2023-08-12T05:36:30;5.90;;;3.55;;
67065;SDS011;53978;43.846;25.952;2023-08-12T05:38:55;4.10;;;3.42;;
67065;SDS011;53978;43.846;25.952;2023-08-12T05:41:20;4.57;;;3.65;;
67065;SDS011;53978;43.846;25.952;2023-08-12T05:43:47;4.80;;;3.53;;
67065;SDS011;53978;43.846;25.952;2023-08-12T05:46:13;4.90;;;3.40;;
67065;SDS011;53978;43.846;25.952;2023-08-12T05:48:38;6.47;;;3.50;;
67065;SDS011;53978;43.846;25.952;2023-08-12T05:51:04;4.05;;;3.20;;
67065;SDS011;53978;43.846;25.952;2023-08-12T05:53:29;4.22;;;3.38;;
67065;SDS011;53978;43.846;25.952;2023-08-12T05:55:54;7.32;;;3.47;;
67065;SDS011;53978;43.846;25.952;2023-08-12T05:58:20;4.53;;;3.35;;
67065;SDS011;53978;43.846;25.952;2023-08-12T06:00:45;4.22;;;3.47;;
67065;SDS011;53978;43.846;25.952;2023-08-12T06:03:11;9.18;;;3.72;;
67065;SDS011;53978;43.846;25.952;2023-08-12T06:05:37;3.67;;;3.38;;
67065;SDS011;53978;43.846;25.952;2023-08-12T06:08:03;5.22;;;3.63;;
67065;SDS011;53978;43.846;25.952;2023-08-12T06:10:28;5.20;;;3.42;;
67065;SDS011;53978;43.846;25.952;2023-08-12T06:12:54;4.72;;;3.67;;
67065;SDS011;53978;43.846;25.952;2023-08-12T06:15:19;4.25;;;3.55;;
67065;SDS011;53978;43.846;25.952;2023-08-12T06:17:45;6.57;;;3.58;;
67065;SDS011;53978;43.846;25.952;2023-08-12T06:20:10;4.85;;;3.15;;
67065;SDS011;53978;43.846;25.952;2023-08-12T06:22:36;4.45;;;3.28;;
67065;SDS011;53978;43.846;25.952;2023-08-12T06:25:02;4.30;;;3.08;;
67065;SDS011;53978;43.846;25.952;2023-08-12T06:27:28;5.82;;;3.30;;
67065;SDS011;53978;43.846;25.952;2023-08-12T06:29:53;5.88;;;3.35;;
67065;SDS011;53978;43.846;25.952;2023-08-12T06:32:18;4.40;;;3.35;;
67065;SDS011;53978;43.846;25.952;2023-08-12T06:34:44;4.72;;;3.45;;
67065;SDS011;53978;43.846;25.952;2023-08-12T06:37:09;6.22;;;3.35;;
67065;SDS011;53978;43.846;25.952;2023-08-12T06:39:35;3.85;;;3.40;;
67065;SDS011;53978;43.846;25.952;2023-08-12T06:42:00;7.45;;;3.70;;
67065;SDS011;53978;43.846;25.952;2023-08-12T06:44:25;5.03;;;3.10;;
67065;SDS011;53978;43.846;25.952;2023-08-12T06:46:51;8.70;;;3.10;;
67065;SDS011;53978;43.846;25.952;2023-08-12T06:49:16;4.30;;;3.08;;
67065;SDS011;53978;43.846;25.952;2023-08-12T06:51:41;3.22;;;2.92;;
67065;SDS011;53978;43.846;25.952;2023-08-12T06:54:07;6.78;;;3.20;;
67065;SDS011;53978;43.846;25.952;2023-08-12T06:56:32;5.05;;;3.08;;
67065;SDS011;53978;43.846;25.952;2023-08-12T06:58:58;5.47;;;3.30;;
67065;SDS011;53978;43.846;25.952;2023-08-12T07:01:23;5.82;;;3.45;;
67065;SDS011;53978;43.846;25.952;2023-08-12T07:03:48;4.50;;;3.33;;
67065;SDS011;53978;43.846;25.952;2023-08-12T07:06:14;5.05;;;3.40;;
67065;SDS011;53978;43.846;25.952;2023-08-12T07:08:40;4.00;;;3.35;;
67065;SDS011;53978;43.846;25.952;2023-08-12T07:11:05;5.43;;;3.47;;
67065;SDS011;53978;43.846;25.952;2023-08-12T07:13:31;3.72;;;3.22;;
67065;SDS011;53978;43.846;25.952;2023-08-12T07:15:56;3.35;;;2.80;;
67065;SDS011;53978;43.846;25.952;2023-08-12T07:18:22;4.03;;;2.97;;
67065;SDS011;53978;43.846;25.952;2023-08-12T07:20:48;3.67;;;2.95;;
67065;SDS011;53978;43.846;25.952;2023-08-12T07:23:13;5.50;;;3.53;;
67065;SDS011;53978;43.846;25.952;2023-08-12T07:25:39;4.00;;;2.92;;
67065;SDS011;53978;43.846;25.952;2023-08-12T07:28:04;4.88;;;3.15;;
67065;SDS011;53978;43.846;25.952;2023-08-12T07:30:30;3.50;;;3.20;;
67065;SDS011;53978;43.846;25.952;2023-08-12T07:32:55;4.80;;;2.95;;
67065;SDS011;53978;43.846;25.952;2023-08-12T07:35:21;3.42;;;3.10;;
67065;SDS011;53978;43.846;25.952;2023-08-12T07:37:46;3.80;;;3.45;;
67065;SDS011;53978;43.846;25.952;2023-08-12T07:40:12;4.40;;;3.45;;
67065;SDS011;53978;43.846;25.952;2023-08-12T07:42:37;4.82;;;3.20;;
67065;SDS011;53978;43.846;25.952;2023-08-12T07:45:03;4.65;;;3.58;;
67065;SDS011;53978;43.846;25.952;2023-08-12T07:47:30;3.65;;;3.00;;
67065;SDS011;53978;43.846;25.952;2023-08-12T07:49:55;4.22;;;3.50;;
67065;SDS011;53978;43.846;25.952;2023-08-12T07:52:21;5.78;;;3.15;;
67065;SDS011;53978;43.846;25.952;2023-08-12T07:54:46;3.72;;;3.10;;
67065;SDS011;53978;43.846;25.952;2023-08-12T07:57:11;3.63;;;3.25;;
67065;SDS011;53978;43.846;25.952;2023-08-12T07:59:37;3.35;;;3.05;;
67065;SDS011;53978;43.846;25.952;2023-08-12T08:02:02;7.15;;;3.40;;
67065;SDS011;53978;43.846;25.952;2023-08-12T08:04:28;3.47;;;2.95;;
67065;SDS011;53978;43.846;25.952;2023-08-12T08:06:53;3.15;;;2.67;;
67065;SDS011;53978;43.846;25.952;2023-08-12T08:09:19;4.50;;;3.00;;
67065;SDS011;53978;43.846;25.952;2023-08-12T08:11:44;3.65;;;2.90;;
67065;SDS011;53978;43.846;25.952;2023-08-12T08:14:09;4.57;;;2.95;;
67065;SDS011;53978;43.846;25.952;2023-08-12T08:16:35;4.55;;;2.97;;
67065;SDS011;53978;43.846;25.952;2023-08-12T08:19:01;8.52;;;3.30;;
67065;SDS011;53978;43.846;25.952;2023-08-12T08:21:27;5.55;;;3.20;;
67065;SDS011;53978;43.846;25.952;2023-08-12T08:23:52;4.43;;;3.08;;
67065;SDS011;53978;43.846;25.952;2023-08-12T08:26:17;5.78;;;3.15;;
67065;SDS011;53978;43.846;25.952;2023-08-12T08:28:43;6.47;;;3.60;;
67065;SDS011;53978;43.846;25.952;2023-08-12T08:31:08;6.13;;;3.10;;
67065;SDS011;53978;43.846;25.952;2023-08-12T08:33:34;6.68;;;3.45;;
67065;SDS011;53978;43.846;25.952;2023-08-12T08:35:59;6.93;;;3.92;;
67065;SDS011;53978;43.846;25.952;2023-08-12T08:38:25;4.03;;;3.10;;
67065;SDS011;53978;43.846;25.952;2023-08-12T08:40:50;3.20;;;2.90;;
67065;SDS011;53978;43.846;25.952;2023-08-12T08:43:18;4.45;;;3.15;;
67065;SDS011;53978;43.846;25.952;2023-08-12T08:45:47;3.88;;;3.00;;
67065;SDS011;53978;43.846;25.952;2023-08-12T08:48:14;6.32;;;3.13;;
67065;SDS011;53978;43.846;25.952;2023-08-12T08:50:40;3.88;;;2.97;;
67065;SDS011;53978;43.846;25.952;2023-08-12T08:53:07;3.95;;;3.22;;
67065;SDS011;53978;43.846;25.952;2023-08-12T08:55:33;3.85;;;2.58;;
67065;SDS011;53978;43.846;25.952;2023-08-12T08:57:58;4.78;;;2.80;;
67065;SDS011;53978;43.846;25.952;2023-08-12T09:00:24;4.28;;;2.88;;
67065;SDS011;53978;43.846;25.952;2023-08-12T09:02:50;5.47;;;3.00;;
67065;SDS011;53978;43.846;25.952;2023-08-12T09:05:16;6.13;;;3.28;;
67065;SDS011;53978;43.846;25.952;2023-08-12T09:07:43;4.10;;;3.05;;
67065;SDS011;53978;43.846;25.952;2023-08-12T09:10:12;3.85;;;3.20;;
67065;SDS011;53978;43.846;25.952;2023-08-12T09:12:37;4.82;;;3.03;;
67065;SDS011;53978;43.846;25.952;2023-08-12T09:15:03;5.50;;;3.10;;
67065;SDS011;53978;43.846;25.952;2023-08-12T09:17:31;5.80;;;3.33;;
67065;SDS011;53978;43.846;25.952;2023-08-12T09:19:57;3.20;;;2.90;;
67065;SDS011;53978;43.846;25.952;2023-08-12T09:22:24;3.70;;;2.75;;
67065;SDS011;53978;43.846;25.952;2023-08-12T09:24:50;4.88;;;2.78;;
67065;SDS011;53978;43.846;25.952;2023-08-12T09:27:30;5.82;;;2.53;;
67065;SDS011;53978;43.846;25.952;2023-08-12T09:29:56;5.80;;;2.80;;
67065;SDS011;53978;43.846;25.952;2023-08-12T09:32:22;8.63;;;3.00;;
67065;SDS011;53978;43.846;25.952;2023-08-12T09:34:54;5.00;;;2.67;;
67065;SDS011;53978;43.846;25.952;2023-08-12T09:37:21;3.53;;;2.78;;
67065;SDS011;53978;43.846;25.952;2023-08-12T09:39:48;3.30;;;2.78;;
67065;SDS011;53978;43.846;25.952;2023-08-12T09:42:18;5.00;;;3.00;;
67065;SDS011;53978;43.846;25.952;2023-08-12T09:44:43;5.20;;;3.10;;
67065;SDS011;53978;43.846;25.952;2023-08-12T09:47:10;5.07;;;2.90;;
67065;SDS011;53978;43.846;25.952;2023-08-12T09:49:35;3.53;;;2.72;;
67065;SDS011;53978;43.846;25.952;2023-08-12T09:52:02;4.13;;;3.22;;
67065;SDS011;53978;43.846;25.952;2023-08-12T09:54:30;7.80;;;3.03;;
67065;SDS011;53978;43.846;25.952;2023-08-12T09:56:57;4.97;;;2.72;;
67065;SDS011;53978;43.846;25.952;2023-08-12T09:59:25;2.60;;;2.40;;
67065;SDS011;53978;43.846;25.952;2023-08-12T10:01:54;2.78;;;2.42;;
67065;SDS011;53978;43.846;25.952;2023-08-12T10:04:21;3.72;;;2.30;;
67065;SDS011;53978;43.846;25.952;2023-08-12T10:06:48;3.50;;;2.65;;
67065;SDS011;53978;43.846;25.952;2023-08-12T10:09:17;2.58;;;2.38;;
67065;SDS011;53978;43.846;25.952;2023-08-12T10:11:43;4.70;;;3.00;;
67065;SDS011;53978;43.846;25.952;2023-08-12T10:14:10;3.35;;;2.90;;
67065;SDS011;53978;43.846;25.952;2023-08-12T10:16:36;3.75;;;2.55;;
67065;SDS011;53978;43.846;25.952;2023-08-12T10:19:04;2.88;;;2.58;;
67065;SDS011;53978;43.846;25.952;2023-08-12T10:21:31;3.53;;;2.70;;
67065;SDS011;53978;43.846;25.952;2023-08-12T10:24:00;3.65;;;2.97;;
67065;SDS011;53978;43.846;25.952;2023-08-12T10:26:25;3.22;;;2.60;;
67065;SDS011;53978;43.846;25.952;2023-08-12T10:28:51;3.10;;;2.60;;
67065;SDS011;53978;43.846;25.952;2023-08-12T10:31:17;4.78;;;3.30;;
67065;SDS011;53978;43.846;25.952;2023-08-12T10:33:43;3.67;;;2.50;;
67065;SDS011;53978;43.846;25.952;2023-08-12T10:36:09;3.33;;;2.55;;
67065;SDS011;53978;43.846;25.952;2023-08-12T10:38:35;3.90;;;2.83;;
67065;SDS011;53978;43.846;25.952;2023-08-12T10:41:16;3.95;;;2.58;;
67065;SDS011;53978;43.846;25.952;2023-08-12T10:43:56;3.17;;;2.40;;
67065;SDS011;53978;43.846;25.952;2023-08-12T10:46:31;3.90;;;2.70;;
67065;SDS011;53978;43.846;25.952;2023-08-12T10:49:04;2.78;;;2.53;;
67065;SDS011;53978;43.846;25.952;2023-08-12T11:05:04;2.65;;;2.45;;
67065;SDS011;53978;43.846;25.952;2023-08-12T11:07:41;2.53;;;2.33;;
67065;SDS011;53978;43.846;25.952;2023-08-12T11:10:20;3.38;;;2.58;;
67065;SDS011;53978;43.846;25.952;2023-08-12T11:15:18;2.47;;;2.10;;
67065;SDS011;53978;43.846;25.952;2023-08-12T11:17:45;2.40;;;2.20;;
67065;SDS011;53978;43.846;25.952;2023-08-12T11:20:12;2.50;;;2.10;;
67065;SDS011;53978;43.846;25.952;2023-08-12T11:22:42;2.15;;;1.95;;
67065;SDS011;53978;43.846;25.952;2023-08-12T11:25:09;2.22;;;2.00;;
67065;SDS011;53978;43.846;25.952;2023-08-12T11:27:46;3.25;;;2.50;;
67065;SDS011;53978;43.846;25.952;2023-08-12T11:30:13;3.08;;;2.17;;
67065;SDS011;53978;43.846;25.952;2023-08-12T11:32:43;2.50;;;2.25;;
67065;SDS011;53978;43.846;25.952;2023-08-12T11:35:09;2.92;;;1.95;;
67065;SDS011;53978;43.846;25.952;2023-08-12T11:37:39;3.17;;;2.10;;
67065;SDS011;53978;43.846;25.952;2023-08-12T11:40:05;3.95;;;2.10;;
67065;SDS011;53978;43.846;25.952;2023-08-12T11:42:33;2.92;;;2.13;;
67065;SDS011;53978;43.846;25.952;2023-08-12T11:45:03;3.60;;;2.05;;
67065;SDS011;53978;43.846;25.952;2023-08-12T11:47:30;2.25;;;2.05;;
67065;SDS011;53978;43.846;25.952;2023-08-12T11:49:55;2.35;;;2.10;;
67065;SDS011;53978;43.846;25.952;2023-08-12T11:52:21;4.75;;;2.00;;
67065;SDS011;53978;43.846;25.952;2023-08-12T11:54:47;2.47;;;2.00;;
67065;SDS011;53978;43.846;25.952;2023-08-12T11:57:14;2.85;;;1.80;;
67065;SDS011;53978;43.846;25.952;2023-08-12T11:59:39;3.83;;;2.05;;
67065;SDS011;53978;43.846;25.952;2023-08-12T12:02:04;2.65;;;2.10;;
67065;SDS011;53978;43.846;25.952;2023-08-12T12:04:31;2.30;;;2.10;;
67065;SDS011;53978;43.846;25.952;2023-08-12T12:06:56;3.03;;;2.05;;
67065;SDS011;53978;43.846;25.952;2023-08-12T12:09:22;2.35;;;2.13;;
67065;SDS011;53978;43.846;25.952;2023-08-12T12:11:51;2.00;;;1.90;;
67065;SDS011;53978;43.846;25.952;2023-08-12T12:14:17;2.30;;;2.10;;
67065;SDS011;53978;43.846;25.952;2023-08-12T12:16:43;2.20;;;2.00;;
67065;SDS011;53978;43.846;25.952;2023-08-12T12:21:42;5.38;;;2.20;;
67065;SDS011;53978;43.846;25.952;2023-08-12T12:24:10;2.05;;;1.92;;
67065;SDS011;53978;43.846;25.952;2023-08-12T12:26:36;4.93;;;1.77;;
67065;SDS011;53978;43.846;25.952;2023-08-12T12:29:03;2.70;;;2.20;;
67065;SDS011;53978;43.846;25.952;2023-08-12T12:31:29;2.53;;;2.33;;
67065;SDS011;53978;43.846;25.952;2023-08-12T12:33:54;11.40;;;2.63;;
67065;SDS011;53978;43.846;25.952;2023-08-12T12:36:19;3.95;;;1.95;;
67065;SDS011;53978;43.846;25.952;2023-08-12T12:38:45;3.85;;;2.10;;
67065;SDS011;53978;43.846;25.952;2023-08-12T12:41:10;1.92;;;1.80;;
67065;SDS011;53978;43.846;25.952;2023-08-12T12:43:36;2.20;;;1.70;;
67065;SDS011;53978;43.846;25.952;2023-08-12T12:46:01;5.65;;;2.17;;
67065;SDS011;53978;43.846;25.952;2023-08-12T12:48:26;2.20;;;1.58;;
67065;SDS011;53978;43.846;25.952;2023-08-12T12:50:52;2.20;;;1.92;;
67065;SDS011;53978;43.846;25.952;2023-08-12T12:53:20;2.20;;;2.00;;
67065;SDS011;53978;43.846;25.952;2023-08-12T12:55:45;3.50;;;1.98;;
67065;SDS011;53978;43.846;25.952;2023-08-12T12:58:11;3.75;;;2.00;;
67065;SDS011;53978;43.846;25.952;2023-08-12T13:00:36;2.20;;;1.88;;
67065;SDS011;53978;43.846;25.952;2023-08-12T13:03:02;2.38;;;1.77;;
67065;SDS011;53978;43.846;25.952;2023-08-12T13:05:27;2.15;;;1.90;;
67065;SDS011;53978;43.846;25.952;2023-08-12T13:07:53;2.30;;;1.90;;
67065;SDS011;53978;43.846;25.952;2023-08-12T13:10:18;1.80;;;1.65;;
67065;SDS011;53978;43.846;25.952;2023-08-12T13:12:43;2.85;;;1.50;;
67065;SDS011;53978;43.846;25.952;2023-08-12T13:15:09;2.00;;;1.45;;
67065;SDS011;53978;43.846;25.952;2023-08-12T13:17:34;1.65;;;1.50;;
67065;SDS011;53978;43.846;25.952;2023-08-12T13:20:00;1.40;;;1.30;;
67065;SDS011;53978;43.846;25.952;2023-08-12T13:22:25;1.67;;;1.58;;
67065;SDS011;53978;43.846;25.952;2023-08-12T13:24:51;1.60;;;1.50;;
67065;SDS011;53978;43.846;25.952;2023-08-12T13:27:16;2.05;;;1.58;;
67065;SDS011;53978;43.846;25.952;2023-08-12T13:29:42;1.60;;;1.40;;
67065;SDS011;53978;43.846;25.952;2023-08-12T13:32:08;1.25;;;1.15;;
67065;SDS011;53978;43.846;25.952;2023-08-12T13:34:33;2.38;;;1.48;;
67065;SDS011;53978;43.846;25.952;2023-08-12T13:36:59;1.50;;;1.40;;
67065;SDS011;53978;43.846;25.952;2023-08-12T13:39:24;2.83;;;2.20;;
67065;SDS011;53978;43.846;25.952;2023-08-12T13:41:50;2.65;;;2.20;;
67065;SDS011;53978;43.846;25.952;2023-08-12T13:44:15;2.13;;;1.95;;
67065;SDS011;53978;43.846;25.952;2023-08-12T13:46:40;2.30;;;2.00;;
67065;SDS011;53978;43.846;25.952;2023-08-12T13:49:06;2.63;;;2.25;;
67065;SDS011;53978;43.846;25.952;2023-08-12T13:51:31;2.90;;;1.95;;
67065;SDS011;53978;43.846;25.952;2023-08-12T13:53:56;7.65;;;2.75;;
67065;SDS011;53978;43.846;25.952;2023-08-12T13:56:22;2.65;;;2.40;;
67065;SDS011;53978;43.846;25.952;2023-08-12T13:58:47;2.30;;;2.10;;
67065;SDS011;53978;43.846;25.952;2023-08-12T14:01:13;4.03;;;2.10;;
67065;SDS011;53978;43.846;25.952;2023-08-12T14:03:38;2.47;;;2.28;;
67065;SDS011;53978;43.846;25.952;2023-08-12T14:06:03;2.30;;;2.00;;
67065;SDS011;53978;43.846;25.952;2023-08-12T14:08:29;2.22;;;2.00;;
67065;SDS011;53978;43.846;25.952;2023-08-12T14:10:55;2.88;;;2.30;;
67065;SDS011;53978;43.846;25.952;2023-08-12T14:13:20;2.65;;;2.15;;
67065;SDS011;53978;43.846;25.952;2023-08-12T14:15:46;3.95;;;2.08;;
67065;SDS011;53978;43.846;25.952;2023-08-12T14:18:11;4.97;;;2.13;;
67065;SDS011;53978;43.846;25.952;2023-08-12T14:20:36;2.28;;;2.08;;
67065;SDS011;53978;43.846;25.952;2023-08-12T14:23:02;2.20;;;2.00;;
67065;SDS011;53978;43.846;25.952;2023-08-12T14:25:27;3.05;;;2.40;;
67065;SDS011;53978;43.846;25.952;2023-08-12T14:27:53;2.88;;;2.13;;
67065;SDS011;53978;43.846;25.952;2023-08-12T14:30:18;3.83;;;2.25;;
67065;SDS011;53978;43.846;25.952;2023-08-12T14:32:45;2.15;;;1.95;;
67065;SDS011;53978;43.846;25.952;2023-08-12T14:35:10;3.08;;;2.55;;
67065;SDS011;53978;43.846;25.952;2023-08-12T14:37:36;4.25;;;3.05;;
67065;SDS011;53978;43.846;25.952;2023-08-12T14:40:01;3.08;;;2.45;;
67065;SDS011;53978;43.846;25.952;2023-08-12T14:42:27;2.17;;;1.98;;
67065;SDS011;53978;43.846;25.952;2023-08-12T14:44:53;3.22;;;2.53;;
67065;SDS011;53978;43.846;25.952;2023-08-12T14:47:18;2.67;;;1.88;;
67065;SDS011;53978;43.846;25.952;2023-08-12T14:49:44;2.35;;;2.00;;